N5996K KSEE-

Flight info

Callsign N5996K
Flight time N/A
Altitude VFR
Route
Aircraft C182/L-DOV/C

Departure

Time 2026-05-04 03:02
Airport Gillespie Field (KSEE)

Arrival

Time N/A
Airport -
Time Latitude Longitude Altitude Speed Heading
2026-05-04 02:52 32.82609 -116.97345 371 ft 0 kts 318°
2026-05-04 02:56 32.82632 -116.97333 371 ft 8 kts 114°
2026-05-04 02:56 32.82604 -116.97207 372 ft 22 kts 102°
2026-05-04 02:56 32.82564 -116.96987 375 ft 30 kts 101°
2026-05-04 02:56 32.82522 -116.96747 384 ft 28 kts 103°
2026-05-04 02:57 32.82484 -116.96539 388 ft 24 kts 102°
2026-05-04 02:57 32.82516 -116.96450 389 ft 13 kts
2026-05-04 02:57 32.82567 -116.96438 389 ft 0 kts 11°
2026-05-04 02:59 32.82599 -116.96442 390 ft 6 kts 332°
2026-05-04 02:59 32.82601 -116.96443 390 ft 0 kts 327°
2026-05-04 03:00 32.82611 -116.96452 390 ft 9 kts 326°
2026-05-04 03:00 32.82654 -116.96511 389 ft 8 kts 282°
2026-05-04 03:00 32.82657 -116.96528 389 ft 0 kts 282°
2026-05-04 03:01 32.82688 -116.96700 381 ft 51 kts 282°
2026-05-04 03:01 32.82796 -116.97285 453 ft 86 kts 282°
2026-05-04 03:02 32.83052 -116.97940 744 ft 93 kts 316°
2026-05-04 03:02 32.83704 -116.98035 1085 ft 102 kts
2026-05-04 03:02 32.84387 -116.97784 1395 ft 101 kts 10°
2026-05-04 03:02 32.85046 -116.97548 1759 ft 99 kts 19°
2026-05-04 03:03 32.85680 -116.96928 1711 ft 132 kts 28°
2026-05-04 03:03 32.86580 -116.96665 1819 ft 135 kts 358°
2026-05-04 03:03 32.87508 -116.96585 2122 ft 131 kts 358°
2026-05-04 03:03 32.88420 -116.96513 2219 ft 136 kts 355°
2026-05-04 03:04 32.89346 -116.96439 2392 ft 125 kts 358°
2026-05-04 03:04 32.90100 -116.96373 2608 ft 98 kts 354°
2026-05-04 03:04 32.90770 -116.96327 2831 ft 95 kts 355°
2026-05-04 03:04 32.91430 -116.96282 2994 ft 98 kts 356°
2026-05-04 03:05 32.92139 -116.96230 3148 ft 105 kts 356°
2026-05-04 03:05 32.92885 -116.96172 3309 ft 108 kts 357°
2026-05-04 03:05 32.93638 -116.96111 3514 ft 109 kts 357°
2026-05-04 03:05 32.94360 -116.96054 3703 ft 101 kts 358°
2026-05-04 03:06 32.95066 -116.96001 3878 ft 103 kts 356°
2026-05-04 03:06 32.95793 -116.95945 4047 ft 109 kts 358°
2026-05-04 03:06 32.96580 -116.95884 4214 ft 117 kts 358°
2026-05-04 03:06 32.97407 -116.95818 4394 ft 125 kts 358°
2026-05-04 03:07 32.98279 -116.95746 4585 ft 126 kts 359°
2026-05-04 03:07 32.99153 -116.95677 4794 ft 125 kts 359°
2026-05-04 03:07 33.00006 -116.95612 5012 ft 123 kts 358°
2026-05-04 03:07 33.00852 -116.95545 5230 ft 120 kts 358°
2026-05-04 03:08 33.01683 -116.95481 5449 ft 119 kts 358°
2026-05-04 03:08 33.02488 -116.95417 5660 ft 113 kts 356°
2026-05-04 03:08 33.03269 -116.95358 5826 ft 111 kts 357°
2026-05-04 03:08 33.04033 -116.95299 5995 ft 109 kts 355°
2026-05-04 03:09 33.04790 -116.95240 6172 ft 109 kts 356°
2026-05-04 03:09 33.05545 -116.95182 6344 ft 108 kts 356°
2026-05-04 03:09 33.06286 -116.95125 6513 ft 108 kts 355°
2026-05-04 03:09 33.07054 -116.95065 6654 ft 111 kts 355°
2026-05-04 03:10 33.07830 -116.95004 6797 ft 112 kts 354°
2026-05-04 03:10 33.08600 -116.94944 6940 ft 112 kts 355°
2026-05-04 03:10 33.09376 -116.94883 7080 ft 112 kts 354°
2026-05-04 03:10 33.10155 -116.94822 7231 ft 113 kts 354°
2026-05-04 03:11 33.10945 -116.94761 7376 ft 114 kts 354°
2026-05-04 03:11 33.11741 -116.94699 7525 ft 115 kts 354°
2026-05-04 03:11 33.12540 -116.94635 7667 ft 114 kts 354°
2026-05-04 03:11 33.13322 -116.94572 7805 ft 111 kts 353°
2026-05-04 03:12 33.14074 -116.94513 7941 ft 106 kts 352°
2026-05-04 03:12 33.14796 -116.94458 8069 ft 102 kts 352°